createdAt,value
2022-07-29T00:00:00.250Z,17.60
2022-07-29T00:02:30.288Z,17.60
2022-07-29T00:04:57.320Z,17.60
2022-07-29T00:07:24.241Z,17.60
2022-07-29T00:09:52.675Z,17.50
2022-07-29T00:12:26.087Z,17.60
2022-07-29T00:14:54.934Z,17.60
2022-07-29T00:17:21.952Z,17.60
2022-07-29T00:19:48.922Z,17.60
2022-07-29T00:22:15.866Z,17.60
2022-07-29T00:24:43.082Z,17.50
2022-07-29T00:27:10.071Z,17.50
2022-07-29T00:29:37.036Z,17.40
2022-07-29T00:32:04.658Z,17.50
2022-07-29T00:34:50.339Z,17.50
2022-07-29T00:37:17.405Z,17.50
2022-07-29T00:39:44.726Z,17.50
2022-07-29T00:42:11.758Z,17.50
2022-07-29T00:44:40.086Z,17.50
2022-07-29T00:47:07.652Z,17.50
2022-07-29T00:49:34.960Z,17.50
2022-07-29T00:52:03.311Z,17.50
2022-07-29T00:54:30.293Z,17.50
2022-07-29T00:57:00.558Z,17.50
2022-07-29T00:59:34.588Z,17.50
2022-07-29T01:02:05.904Z,17.40
2022-07-29T01:04:33.114Z,17.40
2022-07-29T01:07:01.945Z,17.40
2022-07-29T01:09:37.301Z,17.40
2022-07-29T01:12:18.462Z,17.40
2022-07-29T01:14:46.001Z,17.40
2022-07-29T01:17:33.310Z,17.40
2022-07-29T01:20:09.319Z,17.40
2022-07-29T01:22:36.350Z,17.40
2022-07-29T01:25:21.870Z,17.40
2022-07-29T01:28:25.867Z,17.40
2022-07-29T01:30:53.776Z,17.40
2022-07-29T01:33:39.125Z,17.40
2022-07-29T01:36:18.798Z,17.30
2022-07-29T01:39:01.936Z,17.30
2022-07-29T01:41:28.982Z,17.30
2022-07-29T01:43:58.502Z,17.30
2022-07-29T01:46:36.076Z,17.30
2022-07-29T01:49:21.621Z,17.30
2022-07-29T01:52:10.094Z,17.40
2022-07-29T01:54:40.303Z,17.30
2022-07-29T01:57:08.508Z,17.30
2022-07-29T01:59:35.851Z,17.30
2022-07-29T02:02:03.378Z,17.30
2022-07-29T02:04:30.519Z,17.20
2022-07-29T02:06:59.887Z,17.20
2022-07-29T02:09:26.835Z,17.10
2022-07-29T02:11:54.441Z,17.10
2022-07-29T02:14:22.478Z,17.10
2022-07-29T02:16:51.315Z,17.20
2022-07-29T02:19:19.319Z,17.10
2022-07-29T02:21:46.732Z,17.10
2022-07-29T02:24:14.134Z,17.10
2022-07-29T02:26:42.067Z,17.10
2022-07-29T02:29:09.267Z,17.10
2022-07-29T02:31:36.671Z,16.90
2022-07-29T02:34:04.758Z,16.70
2022-07-29T02:36:31.774Z,16.60
2022-07-29T02:39:01.622Z,16.60
2022-07-29T02:41:48.980Z,16.50
2022-07-29T02:44:18.239Z,16.50
2022-07-29T02:47:00.621Z,16.50
2022-07-29T02:49:33.652Z,16.40
2022-07-29T02:52:07.360Z,16.30
2022-07-29T02:54:45.589Z,16.20
2022-07-29T02:57:28.809Z,16.10
2022-07-29T02:59:55.715Z,16.00
2022-07-29T03:02:22.752Z,16.00
2022-07-29T03:04:50.294Z,16.00
2022-07-29T03:07:17.595Z,16.00
2022-07-29T03:09:44.557Z,16.10
2022-07-29T03:12:11.673Z,16.00
2022-07-29T03:14:39.241Z,15.90
2022-07-29T03:17:06.168Z,15.80
2022-07-29T03:19:33.058Z,15.70
2022-07-29T03:22:00.258Z,15.60
2022-07-29T03:24:34.388Z,15.50
2022-07-29T03:27:01.685Z,15.50
2022-07-29T03:29:33.205Z,15.60
2022-07-29T03:32:08.234Z,15.60
2022-07-29T03:34:36.666Z,15.60
2022-07-29T03:37:03.667Z,15.50
2022-07-29T03:39:32.680Z,15.40
2022-07-29T03:41:59.594Z,15.20
2022-07-29T03:44:26.463Z,15.10
2022-07-29T03:46:53.637Z,15.00
2022-07-29T03:49:20.738Z,14.90
2022-07-29T03:51:47.735Z,14.90
2022-07-29T03:54:14.798Z,14.90
2022-07-29T03:56:45.630Z,14.80
2022-07-29T03:59:12.810Z,14.70
2022-07-29T04:01:39.879Z,14.80
2022-07-29T04:04:06.861Z,14.90
2022-07-29T04:06:43.814Z,15.00
2022-07-29T04:09:10.801Z,14.90
2022-07-29T04:12:00.683Z,14.90
2022-07-29T04:14:26.156Z,14.70
2022-07-29T04:16:54.098Z,14.70
2022-07-29T04:19:21.148Z,14.70
2022-07-29T04:21:48.136Z,14.70
2022-07-29T04:24:15.384Z,14.70
2022-07-29T04:26:43.053Z,14.70
2022-07-29T04:29:09.970Z,14.60
2022-07-29T04:31:36.969Z,14.60
2022-07-29T04:34:03.964Z,14.60
2022-07-29T04:36:30.930Z,14.50
2022-07-29T04:38:57.920Z,14.60
2022-07-29T04:41:25.737Z,14.60
2022-07-29T04:44:02.045Z,14.60
2022-07-29T04:46:29.216Z,14.70
2022-07-29T04:48:56.342Z,14.80
2022-07-29T04:51:23.423Z,14.90
2022-07-29T04:53:50.358Z,14.80
2022-07-29T04:56:17.489Z,14.80
2022-07-29T04:58:44.426Z,14.80
2022-07-29T05:01:11.465Z,14.90
2022-07-29T05:03:38.556Z,15.00
2022-07-29T05:06:05.574Z,15.10
2022-07-29T05:08:32.496Z,15.10
2022-07-29T05:10:59.413Z,15.30
2022-07-29T05:13:45.197Z,15.50
2022-07-29T05:16:14.174Z,15.80
2022-07-29T05:18:41.473Z,16.10
2022-07-29T05:21:08.395Z,16.60
2022-07-29T05:23:35.460Z,17.30
2022-07-29T05:26:02.704Z,17.90
2022-07-29T05:28:29.718Z,18.40
2022-07-29T05:30:57.355Z,18.70
2022-07-29T05:33:35.124Z,19.10
2022-07-29T05:36:07.752Z,19.70
2022-07-29T05:38:36.495Z,20.20
2022-07-29T05:41:03.669Z,20.60
2022-07-29T05:43:30.698Z,21.00
2022-07-29T05:45:57.970Z,21.40
2022-07-29T05:48:25.343Z,21.80
2022-07-29T05:50:52.402Z,22.20
2022-07-29T05:53:20.846Z,22.60
2022-07-29T05:55:52.703Z,22.90
2022-07-29T05:58:19.611Z,23.30
2022-07-29T06:00:46.566Z,23.50
2022-07-29T06:03:13.572Z,23.40
2022-07-29T06:05:40.524Z,23.40
2022-07-29T06:08:08.383Z,23.50
2022-07-29T06:10:38.900Z,23.50
2022-07-29T06:13:05.791Z,23.40
2022-07-29T06:15:32.785Z,23.10
2022-07-29T06:18:01.951Z,22.70
2022-07-29T06:20:33.268Z,22.40
2022-07-29T06:23:01.007Z,22.30
2022-07-29T06:25:30.487Z,22.40
2022-07-29T06:27:58.241Z,22.40
2022-07-29T06:30:25.304Z,22.50
2022-07-29T06:32:52.344Z,22.50
2022-07-29T06:35:41.638Z,22.60
2022-07-29T06:38:25.662Z,22.80
2022-07-29T06:41:02.778Z,23.20
2022-07-29T06:43:50.337Z,23.40
2022-07-29T06:46:18.861Z,23.30
2022-07-29T06:48:45.995Z,23.10
2022-07-29T06:51:13.133Z,23.00
2022-07-29T06:53:40.219Z,23.00
2022-07-29T06:56:26.236Z,22.90
2022-07-29T06:58:53.243Z,22.70
2022-07-29T07:01:20.940Z,22.70
2022-07-29T07:03:48.778Z,23.00
2022-07-29T07:06:15.846Z,23.50
2022-07-29T07:08:42.738Z,23.80
2022-07-29T07:11:09.986Z,24.00
2022-07-29T07:13:37.020Z,23.90
2022-07-29T07:16:04.468Z,23.80
2022-07-29T07:18:31.501Z,23.60
2022-07-29T07:20:58.448Z,23.60
2022-07-29T07:23:25.834Z,23.50
2022-07-29T07:25:52.800Z,23.50
2022-07-29T07:28:24.564Z,23.10
2022-07-29T07:30:52.846Z,22.80
2022-07-29T07:33:19.996Z,22.90
2022-07-29T07:35:47.119Z,23.40
2022-07-29T07:38:14.232Z,24.10
2022-07-29T07:40:41.612Z,24.70
2022-07-29T07:43:08.606Z,25.30
2022-07-29T07:45:38.128Z,25.70
2022-07-29T07:48:05.866Z,26.00
2022-07-29T07:50:32.903Z,26.00
2022-07-29T07:53:00.050Z,26.20
2022-07-29T07:55:27.116Z,26.50
2022-07-29T07:57:54.667Z,26.60
2022-07-29T08:00:23.117Z,26.50
2022-07-29T08:02:51.279Z,26.70
2022-07-29T08:05:18.549Z,26.90
2022-07-29T08:07:46.894Z,27.30
2022-07-29T08:10:15.472Z,27.30
2022-07-29T08:12:43.058Z,27.60
2022-07-29T08:15:10.206Z,27.70
2022-07-29T08:17:37.206Z,27.40
2022-07-29T08:20:04.712Z,27.40
2022-07-29T08:22:31.789Z,27.10
2022-07-29T08:24:58.731Z,26.70
2022-07-29T08:27:43.070Z,26.90
2022-07-29T08:30:11.495Z,27.20
2022-07-29T08:32:55.239Z,27.60
2022-07-29T08:35:23.515Z,27.80
2022-07-29T08:37:50.464Z,27.70
2022-07-29T08:40:17.601Z,27.60
2022-07-29T08:42:44.639Z,27.50
2022-07-29T08:45:11.964Z,27.60
2022-07-29T08:47:40.860Z,27.60
2022-07-29T08:50:09.101Z,27.80
2022-07-29T08:52:38.299Z,27.90
2022-07-29T08:55:09.621Z,27.90
2022-07-29T08:57:37.272Z,27.90
2022-07-29T09:00:11.639Z,27.80
2022-07-29T09:02:41.275Z,27.80
2022-07-29T09:05:08.475Z,27.60
2022-07-29T09:07:35.749Z,27.90
2022-07-29T09:10:02.677Z,28.30
2022-07-29T09:12:33.685Z,28.20
2022-07-29T09:15:03.631Z,27.80
2022-07-29T09:17:50.147Z,27.60
2022-07-29T09:20:18.544Z,27.60
2022-07-29T09:22:50.142Z,27.50
2022-07-29T09:25:37.762Z,27.30
2022-07-29T09:28:08.879Z,27.20
2022-07-29T09:30:36.186Z,27.10
2022-07-29T09:33:04.046Z,27.40
2022-07-29T09:35:31.501Z,27.50
2022-07-29T09:37:58.516Z,27.80
2022-07-29T09:40:29.012Z,28.00
2022-07-29T09:42:59.337Z,28.20
2022-07-29T09:45:29.525Z,28.40
2022-07-29T09:47:58.475Z,28.50
2022-07-29T09:50:42.264Z,28.20
2022-07-29T09:53:12.241Z,27.80
2022-07-29T09:55:49.651Z,27.30
2022-07-29T09:58:21.025Z,27.00
2022-07-29T10:00:48.924Z,27.10
2022-07-29T10:03:16.847Z,27.40
2022-07-29T10:05:44.284Z,27.90
2022-07-29T10:08:13.296Z,27.70
2022-07-29T10:10:42.715Z,27.70
2022-07-29T10:13:16.648Z,27.70
2022-07-29T10:15:46.037Z,27.80
2022-07-29T10:18:14.109Z,27.80
2022-07-29T10:20:41.270Z,27.80
2022-07-29T10:23:08.260Z,28.00
2022-07-29T10:25:35.162Z,27.90
2022-07-29T10:28:02.156Z,28.10
2022-07-29T10:30:29.247Z,28.10
2022-07-29T10:33:17.600Z,27.80
2022-07-29T10:36:03.205Z,27.20
2022-07-29T10:39:17.290Z,26.80
2022-07-29T10:42:01.506Z,26.60
2022-07-29T10:44:30.781Z,26.50
2022-07-29T10:46:58.967Z,26.30
2022-07-29T10:49:28.046Z,26.30
2022-07-29T10:52:10.324Z,26.50
2022-07-29T10:54:39.705Z,26.50
2022-07-29T10:57:16.520Z,26.60
2022-07-29T10:59:47.803Z,26.40
2022-07-29T11:02:42.661Z,26.20
2022-07-29T11:05:12.961Z,26.20
2022-07-29T11:07:46.012Z,26.50
2022-07-29T11:10:16.620Z,26.80
2022-07-29T11:12:47.075Z,26.90
2022-07-29T11:15:21.969Z,27.10
2022-07-29T11:17:55.098Z,26.90
2022-07-29T11:20:36.494Z,26.70
2022-07-29T11:23:25.214Z,26.80
2022-07-29T11:26:14.417Z,26.70
2022-07-29T11:29:05.535Z,26.90
2022-07-29T11:31:36.882Z,26.80
2022-07-29T11:34:20.843Z,26.70
2022-07-29T11:37:06.469Z,26.50
2022-07-29T11:39:37.123Z,26.60
2022-07-29T11:42:32.564Z,26.80
2022-07-29T11:45:42.848Z,26.90
2022-07-29T11:48:05.221Z,26.60
2022-07-29T11:50:46.244Z,26.90
2022-07-29T11:53:16.111Z,27.10
2022-07-29T11:55:51.708Z,27.20
2022-07-29T11:58:25.116Z,27.10
2022-07-29T12:00:53.178Z,27.20
2022-07-29T12:03:33.382Z,27.30
2022-07-29T12:06:02.799Z,27.10
2022-07-29T12:08:29.788Z,26.80
2022-07-29T12:10:56.825Z,26.70
2022-07-29T12:13:37.233Z,26.70
2022-07-29T12:16:05.446Z,26.80
2022-07-29T12:18:32.660Z,26.90
2022-07-29T12:21:03.321Z,27.10
2022-07-29T12:23:35.027Z,26.90
2022-07-29T12:26:07.642Z,27.00
2022-07-29T12:28:39.549Z,27.00
2022-07-29T12:31:08.129Z,27.00
2022-07-29T12:33:36.166Z,27.10
2022-07-29T12:36:07.253Z,26.70
2022-07-29T12:38:35.936Z,26.40
2022-07-29T12:41:04.588Z,26.40
2022-07-29T12:43:31.898Z,26.40
2022-07-29T12:45:59.017Z,26.60
2022-07-29T12:48:39.089Z,26.70
2022-07-29T12:51:07.346Z,26.90
2022-07-29T12:53:34.449Z,26.90
2022-07-29T12:56:15.623Z,26.70
2022-07-29T12:58:51.419Z,26.50
2022-07-29T13:01:22.035Z,26.20
2022-07-29T13:03:56.856Z,26.40
2022-07-29T13:06:45.882Z,26.30
2022-07-29T13:09:14.599Z,26.10
2022-07-29T13:11:46.639Z,26.00
2022-07-29T13:14:30.931Z,26.10
2022-07-29T13:17:02.179Z,26.40
2022-07-29T13:19:35.275Z,26.40
2022-07-29T13:22:02.205Z,26.10
2022-07-29T13:24:29.220Z,26.10
2022-07-29T13:26:57.062Z,26.10
2022-07-29T13:29:26.547Z,26.30
2022-07-29T13:31:56.458Z,26.60
2022-07-29T13:34:25.248Z,27.00
2022-07-29T13:36:55.254Z,27.10
2022-07-29T13:39:22.406Z,26.90
2022-07-29T13:41:49.343Z,26.80
2022-07-29T13:44:16.324Z,26.90
2022-07-29T13:46:43.235Z,27.00
2022-07-29T13:49:10.781Z,27.10
2022-07-29T13:51:38.030Z,27.00
2022-07-29T13:54:05.302Z,27.00
2022-07-29T13:56:32.419Z,27.00
2022-07-29T13:58:59.354Z,27.00
2022-07-29T14:01:27.249Z,27.10
2022-07-29T14:03:54.631Z,27.20
2022-07-29T14:06:22.917Z,27.30
2022-07-29T14:08:49.897Z,27.40
2022-07-29T14:11:16.941Z,27.50
2022-07-29T14:13:43.887Z,27.50
2022-07-29T14:16:10.907Z,27.50
2022-07-29T14:18:37.888Z,27.40
2022-07-29T14:21:04.934Z,27.30
2022-07-29T14:23:31.971Z,27.30
2022-07-29T14:25:59.068Z,27.40
2022-07-29T14:28:25.975Z,27.40
2022-07-29T14:30:52.951Z,27.40
2022-07-29T14:33:19.951Z,27.30
2022-07-29T14:35:46.914Z,27.20
2022-07-29T14:38:14.273Z,27.20
2022-07-29T14:40:41.239Z,27.10
2022-07-29T14:43:08.276Z,27.10
2022-07-29T14:45:35.515Z,27.00
2022-07-29T14:48:02.512Z,26.80
2022-07-29T14:50:31.661Z,26.60
2022-07-29T14:53:00.075Z,26.50
2022-07-29T14:55:27.227Z,26.60
2022-07-29T14:58:03.099Z,26.60
2022-07-29T15:00:35.001Z,26.70
2022-07-29T15:03:03.052Z,26.80
2022-07-29T15:05:31.132Z,26.80
2022-07-29T15:07:58.481Z,26.80
2022-07-29T15:10:27.181Z,26.90
2022-07-29T15:12:54.938Z,26.90
2022-07-29T15:15:21.995Z,27.00
2022-07-29T15:17:49.165Z,27.00
2022-07-29T15:20:16.104Z,27.10
2022-07-29T15:22:43.978Z,27.10
2022-07-29T15:25:11.117Z,27.10
2022-07-29T15:27:38.065Z,27.10
2022-07-29T15:30:05.591Z,27.20
2022-07-29T15:32:32.544Z,27.10
2022-07-29T15:34:59.514Z,26.90
2022-07-29T15:37:26.424Z,26.70
2022-07-29T15:39:55.994Z,26.60
2022-07-29T15:42:27.051Z,26.60
2022-07-29T15:44:53.991Z,26.70
2022-07-29T15:47:21.020Z,26.70
2022-07-29T15:49:49.518Z,26.80
2022-07-29T15:52:25.866Z,26.90
2022-07-29T15:54:54.520Z,27.00
2022-07-29T15:57:21.531Z,27.20
2022-07-29T15:59:48.458Z,27.30
2022-07-29T16:02:15.636Z,27.20
2022-07-29T16:04:42.604Z,27.10
2022-07-29T16:07:09.745Z,27.00
2022-07-29T16:09:36.738Z,27.00
2022-07-29T16:12:05.259Z,26.90
2022-07-29T16:14:42.843Z,26.90
2022-07-29T16:17:14.436Z,26.90
2022-07-29T16:19:43.453Z,26.80
2022-07-29T16:22:10.753Z,26.90
2022-07-29T16:24:38.917Z,27.00
2022-07-29T16:27:05.966Z,27.00
2022-07-29T16:29:33.390Z,27.10
2022-07-29T16:32:01.352Z,27.10
2022-07-29T16:34:28.535Z,27.10
2022-07-29T16:36:55.452Z,27.20
2022-07-29T16:39:22.385Z,27.20
2022-07-29T16:41:49.418Z,27.30
2022-07-29T16:44:16.591Z,27.20
2022-07-29T16:46:45.434Z,27.20
2022-07-29T16:49:15.387Z,27.10
2022-07-29T16:51:47.878Z,27.00
2022-07-29T16:54:14.866Z,27.00
2022-07-29T16:56:41.786Z,27.10
2022-07-29T16:59:08.732Z,27.00
2022-07-29T17:01:35.677Z,27.00
2022-07-29T17:04:08.890Z,27.00
2022-07-29T17:06:39.139Z,27.10
2022-07-29T17:09:08.672Z,27.00
2022-07-29T17:11:53.050Z,27.10
2022-07-29T17:14:25.767Z,27.10
2022-07-29T17:17:00.186Z,27.00
2022-07-29T17:19:28.870Z,27.10
2022-07-29T17:22:04.688Z,27.00
2022-07-29T17:24:34.039Z,27.00
2022-07-29T17:27:01.357Z,26.90
2022-07-29T17:29:28.299Z,26.90
2022-07-29T17:31:55.271Z,26.90
2022-07-29T17:34:22.551Z,26.90
2022-07-29T17:36:49.526Z,26.90
2022-07-29T17:39:16.920Z,26.80
2022-07-29T17:41:46.806Z,26.60
2022-07-29T17:44:13.778Z,26.60
2022-07-29T17:46:40.842Z,26.60
2022-07-29T17:49:07.994Z,26.60
2022-07-29T17:51:35.089Z,26.60
2022-07-29T17:54:02.121Z,26.50
2022-07-29T17:56:29.102Z,26.30
2022-07-29T17:58:57.027Z,26.10
2022-07-29T18:01:24.010Z,25.90
2022-07-29T18:03:50.981Z,25.80
2022-07-29T18:06:18.075Z,25.70
2022-07-29T18:08:47.572Z,25.70
2022-07-29T18:11:15.155Z,25.70
2022-07-29T18:13:42.291Z,25.60
2022-07-29T18:16:09.475Z,25.50
2022-07-29T18:18:36.476Z,25.30
2022-07-29T18:21:03.690Z,25.20
2022-07-29T18:23:30.595Z,25.00
2022-07-29T18:25:57.632Z,24.90
2022-07-29T18:28:24.559Z,25.00
2022-07-29T18:30:51.628Z,24.80
2022-07-29T18:33:21.833Z,24.80
2022-07-29T18:35:50.028Z,24.70
2022-07-29T18:38:17.197Z,24.70
2022-07-29T18:40:45.808Z,24.70
2022-07-29T18:43:12.990Z,24.70
2022-07-29T18:45:40.065Z,24.60
2022-07-29T18:48:12.717Z,24.60
2022-07-29T18:50:41.033Z,24.60
2022-07-29T18:53:08.112Z,24.50
2022-07-29T18:55:35.147Z,24.60
2022-07-29T18:58:02.110Z,24.60
2022-07-29T19:00:29.083Z,24.50
2022-07-29T19:02:56.789Z,24.50
2022-07-29T19:05:23.925Z,24.30
2022-07-29T19:07:51.041Z,24.30
2022-07-29T19:10:18.257Z,24.20
2022-07-29T19:12:45.189Z,24.10
2022-07-29T19:15:12.216Z,24.10
2022-07-29T19:17:47.112Z,24.10
2022-07-29T19:20:14.529Z,24.00
2022-07-29T19:22:41.838Z,24.00
2022-07-29T19:25:10.097Z,23.90
2022-07-29T19:27:37.318Z,23.90
2022-07-29T19:30:06.518Z,23.80
2022-07-29T19:32:33.821Z,23.70
2022-07-29T19:35:19.252Z,23.60
2022-07-29T19:37:46.253Z,23.60
2022-07-29T19:40:13.239Z,23.60
2022-07-29T19:42:40.195Z,23.60
2022-07-29T19:45:07.487Z,23.50
2022-07-29T19:47:34.703Z,23.40
2022-07-29T19:50:01.901Z,23.30
2022-07-29T19:52:29.024Z,23.30
2022-07-29T19:54:56.031Z,23.20
2022-07-29T19:57:22.964Z,23.20
2022-07-29T19:59:51.149Z,23.20
2022-07-29T20:02:18.436Z,23.20
2022-07-29T20:04:45.478Z,23.10
2022-07-29T20:07:13.600Z,23.00
2022-07-29T20:09:41.248Z,23.00
2022-07-29T20:12:11.864Z,23.00
2022-07-29T20:14:38.868Z,23.00
2022-07-29T20:17:05.871Z,22.90
2022-07-29T20:19:33.277Z,22.80
2022-07-29T20:22:00.413Z,22.70
2022-07-29T20:24:27.358Z,22.70
2022-07-29T20:26:54.308Z,22.60
2022-07-29T20:29:21.213Z,22.50
2022-07-29T20:31:52.263Z,22.60
2022-07-29T20:34:23.386Z,22.50
2022-07-29T20:36:50.466Z,22.50
2022-07-29T20:39:17.391Z,22.40
2022-07-29T20:41:44.568Z,22.30
2022-07-29T20:44:11.597Z,22.20
2022-07-29T20:46:39.483Z,22.00
2022-07-29T20:49:06.533Z,21.90
2022-07-29T20:51:43.308Z,21.90
2022-07-29T20:54:10.971Z,21.90
2022-07-29T20:56:38.209Z,21.70
2022-07-29T20:59:05.248Z,21.70
2022-07-29T21:01:32.366Z,21.60
2022-07-29T21:04:03.080Z,21.60
2022-07-29T21:06:30.412Z,21.60
2022-07-29T21:08:59.532Z,21.60
2022-07-29T21:11:43.219Z,21.70
2022-07-29T21:14:20.270Z,21.70
2022-07-29T21:16:47.337Z,21.60
2022-07-29T21:19:14.427Z,21.60
2022-07-29T21:21:41.363Z,21.60
2022-07-29T21:24:08.507Z,21.50
2022-07-29T21:26:39.108Z,21.40
2022-07-29T21:29:06.129Z,21.30
2022-07-29T21:31:33.074Z,21.20
2022-07-29T21:34:00.008Z,21.20
2022-07-29T21:39:13.839Z,21.10
2022-07-29T21:41:40.824Z,21.10
2022-07-29T21:44:07.740Z,21.00
2022-07-29T21:46:36.528Z,20.90
2022-07-29T21:49:03.605Z,20.90
2022-07-29T21:51:30.647Z,20.90
2022-07-29T21:53:57.585Z,20.90
2022-07-29T21:56:27.783Z,20.80
2022-07-29T21:58:55.357Z,20.80
2022-07-29T22:01:22.341Z,20.80
2022-07-29T22:03:49.302Z,20.80
2022-07-29T22:06:17.984Z,20.90
2022-07-29T22:08:45.772Z,20.90
2022-07-29T22:11:13.313Z,20.90
2022-07-29T22:13:40.383Z,20.90
2022-07-29T22:16:09.533Z,21.00
2022-07-29T22:18:36.611Z,21.00
2022-07-29T22:21:03.709Z,20.90
2022-07-29T22:23:30.773Z,21.00
2022-07-29T22:25:57.686Z,20.90
2022-07-29T22:28:24.611Z,20.80
2022-07-29T22:30:51.820Z,20.80
2022-07-29T22:33:18.812Z,20.70
2022-07-29T22:35:48.528Z,20.50
2022-07-29T22:38:17.421Z,20.40
2022-07-29T22:40:44.359Z,20.40
2022-07-29T22:43:11.404Z,20.30
2022-07-29T22:45:38.557Z,20.20
2022-07-29T22:48:06.017Z,20.20
2022-07-29T22:50:32.955Z,20.20
2022-07-29T22:52:59.869Z,20.10
2022-07-29T22:55:26.798Z,20.10
2022-07-29T22:57:53.815Z,20.10
2022-07-29T23:00:20.788Z,20.10
2022-07-29T23:02:47.832Z,20.10
2022-07-29T23:05:15.944Z,20.00
2022-07-29T23:07:43.136Z,19.90
2022-07-29T23:10:10.241Z,19.80
2022-07-29T23:12:37.176Z,19.80
2022-07-29T23:15:05.471Z,19.80
2022-07-29T23:17:36.257Z,19.80
2022-07-29T23:20:09.744Z,19.80
2022-07-29T23:22:36.801Z,19.70
2022-07-29T23:25:04.132Z,19.50
2022-07-29T23:27:31.072Z,19.50
2022-07-29T23:29:58.069Z,19.40
2022-07-29T23:32:25.033Z,19.40
2022-07-29T23:34:51.998Z,19.40
2022-07-29T23:37:18.941Z,19.50
2022-07-29T23:39:45.914Z,19.50
2022-07-29T23:42:13.026Z,19.50
2022-07-29T23:44:39.967Z,19.50
2022-07-29T23:47:06.910Z,19.40
2022-07-29T23:49:33.918Z,19.30
2022-07-29T23:52:00.815Z,19.20
2022-07-29T23:54:27.837Z,19.20
2022-07-29T23:56:56.731Z,19.10
2022-07-29T23:59:24.539Z,19.10
